sensor_id;sensor_type;location;lat;lon;timestamp;temperature;humidity
28548;DHT22;68292;49.600;8.746;2023-05-07T00:01:01;21.30;54.00
28548;DHT22;68292;49.600;8.746;2023-05-07T00:03:32;21.30;54.00
28548;DHT22;68292;49.600;8.746;2023-05-07T00:06:02;21.30;54.00
28548;DHT22;68292;49.600;8.746;2023-05-07T00:08:30;21.30;54.00
28548;DHT22;68292;49.600;8.746;2023-05-07T00:10:58;21.30;53.90
28548;DHT22;68292;49.600;8.746;2023-05-07T00:13:26;21.30;53.90
28548;DHT22;68292;49.600;8.746;2023-05-07T00:15:57;21.30;53.90
28548;DHT22;68292;49.600;8.746;2023-05-07T00:18:25;21.30;53.90
28548;DHT22;68292;49.600;8.746;2023-05-07T00:20:53;21.20;53.80
28548;DHT22;68292;49.600;8.746;2023-05-07T00:23:23;21.20;53.80
28548;DHT22;68292;49.600;8.746;2023-05-07T00:25:51;21.20;53.80
28548;DHT22;68292;49.600;8.746;2023-05-07T00:28:19;21.20;53.70
28548;DHT22;68292;49.600;8.746;2023-05-07T00:30:47;21.20;53.70
28548;DHT22;68292;49.600;8.746;2023-05-07T00:33:15;21.20;53.70
28548;DHT22;68292;49.600;8.746;2023-05-07T00:35:43;21.20;53.80
28548;DHT22;68292;49.600;8.746;2023-05-07T00:38:11;21.10;53.70
28548;DHT22;68292;49.600;8.746;2023-05-07T00:40:40;21.10;53.70
28548;DHT22;68292;49.600;8.746;2023-05-07T00:43:08;21.10;53.70
28548;DHT22;68292;49.600;8.746;2023-05-07T00:45:37;21.10;53.80
28548;DHT22;68292;49.600;8.746;2023-05-07T00:48:05;21.10;53.80
28548;DHT22;68292;49.600;8.746;2023-05-07T00:50:33;21.10;53.80
28548;DHT22;68292;49.600;8.746;2023-05-07T00:53:01;21.10;53.80
28548;DHT22;68292;49.600;8.746;2023-05-07T00:55:30;21.00;53.70
28548;DHT22;68292;49.600;8.746;2023-05-07T00:57:59;21.00;53.70
28548;DHT22;68292;49.600;8.746;2023-05-07T01:00:28;21.00;53.80
28548;DHT22;68292;49.600;8.746;2023-05-07T01:02:56;21.00;53.70
28548;DHT22;68292;49.600;8.746;2023-05-07T01:05:25;21.00;53.70
28548;DHT22;68292;49.600;8.746;2023-05-07T01:07:55;21.00;53.70
28548;DHT22;68292;49.600;8.746;2023-05-07T01:10:24;21.00;53.70
28548;DHT22;68292;49.600;8.746;2023-05-07T01:12:53;20.90;53.60
28548;DHT22;68292;49.600;8.746;2023-05-07T01:15:23;20.90;53.60
28548;DHT22;68292;49.600;8.746;2023-05-07T01:17:51;20.90;53.60
28548;DHT22;68292;49.600;8.746;2023-05-07T01:20:28;20.90;53.50
28548;DHT22;68292;49.600;8.746;2023-05-07T01:22:57;20.90;53.60
28548;DHT22;68292;49.600;8.746;2023-05-07T01:25:27;20.80;53.60
28548;DHT22;68292;49.600;8.746;2023-05-07T01:27:58;20.80;53.60
28548;DHT22;68292;49.600;8.746;2023-05-07T01:30:31;20.80;53.60
28548;DHT22;68292;49.600;8.746;2023-05-07T01:33:04;20.80;53.70
28548;DHT22;68292;49.600;8.746;2023-05-07T01:35:38;20.80;53.70
28548;DHT22;68292;49.600;8.746;2023-05-07T01:38:10;20.80;53.80
28548;DHT22;68292;49.600;8.746;2023-05-07T01:40:38;20.80;53.80
28548;DHT22;68292;49.600;8.746;2023-05-07T01:43:06;20.80;53.80
28548;DHT22;68292;49.600;8.746;2023-05-07T01:45:36;20.80;53.80
28548;DHT22;68292;49.600;8.746;2023-05-07T01:48:05;20.80;53.80
28548;DHT22;68292;49.600;8.746;2023-05-07T01:50:34;20.70;53.80
28548;DHT22;68292;49.600;8.746;2023-05-07T01:53:03;20.80;53.90
28548;DHT22;68292;49.600;8.746;2023-05-07T01:55:32;20.70;53.90
28548;DHT22;68292;49.600;8.746;2023-05-07T01:58:01;20.70;53.90
28548;DHT22;68292;49.600;8.746;2023-05-07T02:00:29;20.70;53.80
28548;DHT22;68292;49.600;8.746;2023-05-07T02:02:58;20.70;53.80
28548;DHT22;68292;49.600;8.746;2023-05-07T02:05:39;20.70;53.80
28548;DHT22;68292;49.600;8.746;2023-05-07T02:08:21;20.70;53.80
28548;DHT22;68292;49.600;8.746;2023-05-07T02:10:50;20.70;53.80
28548;DHT22;68292;49.600;8.746;2023-05-07T02:13:20;20.60;53.90
28548;DHT22;68292;49.600;8.746;2023-05-07T02:15:49;20.60;53.90
28548;DHT22;68292;49.600;8.746;2023-05-07T02:18:17;20.70;53.90
28548;DHT22;68292;49.600;8.746;2023-05-07T02:20:45;20.60;53.90
28548;DHT22;68292;49.600;8.746;2023-05-07T02:23:13;20.60;53.90
28548;DHT22;68292;49.600;8.746;2023-05-07T02:25:42;20.60;53.90
28548;DHT22;68292;49.600;8.746;2023-05-07T02:28:11;20.60;53.90
28548;DHT22;68292;49.600;8.746;2023-05-07T02:30:47;20.60;54.00
28548;DHT22;68292;49.600;8.746;2023-05-07T02:33:16;20.60;53.90
28548;DHT22;68292;49.600;8.746;2023-05-07T02:35:44;20.60;54.00
28548;DHT22;68292;49.600;8.746;2023-05-07T02:38:14;20.60;54.00
28548;DHT22;68292;49.600;8.746;2023-05-07T02:40:43;20.60;54.00
28548;DHT22;68292;49.600;8.746;2023-05-07T02:43:12;20.70;54.00
28548;DHT22;68292;49.600;8.746;2023-05-07T02:45:44;20.60;53.90
28548;DHT22;68292;49.600;8.746;2023-05-07T02:48:13;20.70;54.00
28548;DHT22;68292;49.600;8.746;2023-05-07T02:50:42;20.60;53.90
28548;DHT22;68292;49.600;8.746;2023-05-07T02:53:12;20.60;53.90
28548;DHT22;68292;49.600;8.746;2023-05-07T02:55:41;20.60;53.90
28548;DHT22;68292;49.600;8.746;2023-05-07T02:58:09;20.60;53.90
28548;DHT22;68292;49.600;8.746;2023-05-07T03:00:40;20.60;53.90
28548;DHT22;68292;49.600;8.746;2023-05-07T03:03:26;20.60;54.00
28548;DHT22;68292;49.600;8.746;2023-05-07T03:05:54;20.60;53.90
28548;DHT22;68292;49.600;8.746;2023-05-07T03:08:22;20.60;53.90
28548;DHT22;68292;49.600;8.746;2023-05-07T03:10:50;20.60;53.90
28548;DHT22;68292;49.600;8.746;2023-05-07T03:13:18;20.60;54.00
28548;DHT22;68292;49.600;8.746;2023-05-07T03:15:49;20.60;54.00
28548;DHT22;68292;49.600;8.746;2023-05-07T03:18:17;20.60;54.00
28548;DHT22;68292;49.600;8.746;2023-05-07T03:20:47;20.60;54.00
28548;DHT22;68292;49.600;8.746;2023-05-07T03:23:17;20.60;54.00
28548;DHT22;68292;49.600;8.746;2023-05-07T03:25:45;20.60;54.00
28548;DHT22;68292;49.600;8.746;2023-05-07T03:28:14;20.60;54.00
28548;DHT22;68292;49.600;8.746;2023-05-07T03:30:49;20.60;54.00
28548;DHT22;68292;49.600;8.746;2023-05-07T03:33:17;20.60;53.90
28548;DHT22;68292;49.600;8.746;2023-05-07T03:35:46;20.60;53.90
28548;DHT22;68292;49.600;8.746;2023-05-07T03:38:19;20.60;53.90
28548;DHT22;68292;49.600;8.746;2023-05-07T03:40:48;20.60;53.90
28548;DHT22;68292;49.600;8.746;2023-05-07T03:43:17;20.60;53.90
28548;DHT22;68292;49.600;8.746;2023-05-07T03:45:51;20.60;53.90
28548;DHT22;68292;49.600;8.746;2023-05-07T03:48:23;20.60;53.90
28548;DHT22;68292;49.600;8.746;2023-05-07T03:50:54;20.50;54.30
28548;DHT22;68292;49.600;8.746;2023-05-07T03:53:22;20.50;53.80
28548;DHT22;68292;49.600;8.746;2023-05-07T03:55:50;20.50;53.80
28548;DHT22;68292;49.600;8.746;2023-05-07T03:58:19;20.50;53.80
28548;DHT22;68292;49.600;8.746;2023-05-07T04:00:48;20.50;53.90
28548;DHT22;68292;49.600;8.746;2023-05-07T04:03:25;20.50;53.80
28548;DHT22;68292;49.600;8.746;2023-05-07T04:05:57;20.50;53.90
28548;DHT22;68292;49.600;8.746;2023-05-07T04:08:25;20.50;53.80
28548;DHT22;68292;49.600;8.746;2023-05-07T04:10:55;20.50;53.90
28548;DHT22;68292;49.600;8.746;2023-05-07T04:13:25;20.50;53.80
28548;DHT22;68292;49.600;8.746;2023-05-07T04:15:55;20.50;53.80
28548;DHT22;68292;49.600;8.746;2023-05-07T04:18:26;20.40;53.80
28548;DHT22;68292;49.600;8.746;2023-05-07T04:20:54;20.40;53.80
28548;DHT22;68292;49.600;8.746;2023-05-07T04:23:22;20.40;53.80
28548;DHT22;68292;49.600;8.746;2023-05-07T04:25:51;20.40;53.80
28548;DHT22;68292;49.600;8.746;2023-05-07T04:28:26;20.40;53.80
28548;DHT22;68292;49.600;8.746;2023-05-07T04:30:54;20.40;53.80
28548;DHT22;68292;49.600;8.746;2023-05-07T04:33:23;20.40;53.80
28548;DHT22;68292;49.600;8.746;2023-05-07T04:35:52;20.40;53.90
28548;DHT22;68292;49.600;8.746;2023-05-07T04:38:20;20.40;53.90
28548;DHT22;68292;49.600;8.746;2023-05-07T04:40:52;20.40;53.90
28548;DHT22;68292;49.600;8.746;2023-05-07T04:43:23;20.40;54.00
28548;DHT22;68292;49.600;8.746;2023-05-07T04:45:51;20.40;54.10
28548;DHT22;68292;49.600;8.746;2023-05-07T04:48:23;20.30;54.00
28548;DHT22;68292;49.600;8.746;2023-05-07T04:50:53;20.40;54.20
28548;DHT22;68292;49.600;8.746;2023-05-07T04:53:22;20.40;54.30
28548;DHT22;68292;49.600;8.746;2023-05-07T04:55:55;20.40;54.30
28548;DHT22;68292;49.600;8.746;2023-05-07T04:58:27;20.40;55.20
28548;DHT22;68292;49.600;8.746;2023-05-07T05:00:58;20.40;54.50
28548;DHT22;68292;49.600;8.746;2023-05-07T05:03:27;20.40;54.60
28548;DHT22;68292;49.600;8.746;2023-05-07T05:05:57;20.40;54.70
28548;DHT22;68292;49.600;8.746;2023-05-07T05:08:29;20.40;54.80
28548;DHT22;68292;49.600;8.746;2023-05-07T05:11:00;20.40;54.80
28548;DHT22;68292;49.600;8.746;2023-05-07T05:13:30;20.40;54.90
28548;DHT22;68292;49.600;8.746;2023-05-07T05:15:59;20.40;54.90
28548;DHT22;68292;49.600;8.746;2023-05-07T05:18:30;20.40;55.00
28548;DHT22;68292;49.600;8.746;2023-05-07T05:20:59;20.50;55.10
28548;DHT22;68292;49.600;8.746;2023-05-07T05:23:28;20.50;55.20
28548;DHT22;68292;49.600;8.746;2023-05-07T05:25:57;20.50;55.10
28548;DHT22;68292;49.600;8.746;2023-05-07T05:28:28;20.50;55.20
28548;DHT22;68292;49.600;8.746;2023-05-07T05:30:56;20.50;55.30
28548;DHT22;68292;49.600;8.746;2023-05-07T05:33:26;20.50;55.40
28548;DHT22;68292;49.600;8.746;2023-05-07T05:36:01;20.50;55.40
28548;DHT22;68292;49.600;8.746;2023-05-07T05:38:29;20.60;55.60
28548;DHT22;68292;49.600;8.746;2023-05-07T05:40:58;20.60;55.60
28548;DHT22;68292;49.600;8.746;2023-05-07T05:43:28;20.60;55.60
28548;DHT22;68292;49.600;8.746;2023-05-07T05:45:57;20.60;55.60
28548;DHT22;68292;49.600;8.746;2023-05-07T05:48:26;20.60;55.70
28548;DHT22;68292;49.600;8.746;2023-05-07T05:50:54;20.60;55.80
28548;DHT22;68292;49.600;8.746;2023-05-07T05:53:24;20.60;55.90
28548;DHT22;68292;49.600;8.746;2023-05-07T05:55:53;20.60;55.90
28548;DHT22;68292;49.600;8.746;2023-05-07T05:58:22;20.70;55.90
28548;DHT22;68292;49.600;8.746;2023-05-07T06:00:55;20.70;55.90
28548;DHT22;68292;49.600;8.746;2023-05-07T06:03:26;20.70;55.90
28548;DHT22;68292;49.600;8.746;2023-05-07T06:05:56;20.70;55.90
28548;DHT22;68292;49.600;8.746;2023-05-07T06:08:25;20.70;55.90
28548;DHT22;68292;49.600;8.746;2023-05-07T06:10:53;20.80;55.90
28548;DHT22;68292;49.600;8.746;2023-05-07T06:13:22;20.80;55.90
28548;DHT22;68292;49.600;8.746;2023-05-07T06:15:52;20.80;55.80
28548;DHT22;68292;49.600;8.746;2023-05-07T06:18:20;20.80;55.90
28548;DHT22;68292;49.600;8.746;2023-05-07T06:20:49;20.80;56.00
28548;DHT22;68292;49.600;8.746;2023-05-07T06:23:24;20.80;56.20
28548;DHT22;68292;49.600;8.746;2023-05-07T06:25:52;20.80;56.30
28548;DHT22;68292;49.600;8.746;2023-05-07T06:28:25;20.90;56.40
28548;DHT22;68292;49.600;8.746;2023-05-07T06:30:55;20.90;56.30
28548;DHT22;68292;49.600;8.746;2023-05-07T06:33:23;20.90;56.30
28548;DHT22;68292;49.600;8.746;2023-05-07T06:35:51;20.90;56.50
28548;DHT22;68292;49.600;8.746;2023-05-07T06:38:19;21.00;56.50
28548;DHT22;68292;49.600;8.746;2023-05-07T06:40:50;21.00;56.50
28548;DHT22;68292;49.600;8.746;2023-05-07T06:43:18;21.00;56.50
28548;DHT22;68292;49.600;8.746;2023-05-07T06:45:53;21.00;56.50
28548;DHT22;68292;49.600;8.746;2023-05-07T06:48:21;21.10;56.60
28548;DHT22;68292;49.600;8.746;2023-05-07T06:50:59;21.10;56.50
28548;DHT22;68292;49.600;8.746;2023-05-07T06:53:29;21.10;56.50
28548;DHT22;68292;49.600;8.746;2023-05-07T06:56:00;21.10;56.50
28548;DHT22;68292;49.600;8.746;2023-05-07T06:58:29;21.20;56.50
28548;DHT22;68292;49.600;8.746;2023-05-07T07:00:57;21.20;56.60
28548;DHT22;68292;49.600;8.746;2023-05-07T07:03:26;21.20;57.30
28548;DHT22;68292;49.600;8.746;2023-05-07T07:05:55;21.20;56.70
28548;DHT22;68292;49.600;8.746;2023-05-07T07:08:24;21.20;56.70
28548;DHT22;68292;49.600;8.746;2023-05-07T07:10:52;21.30;56.80
28548;DHT22;68292;49.600;8.746;2023-05-07T07:13:22;21.30;56.70
28548;DHT22;68292;49.600;8.746;2023-05-07T07:15:51;21.30;56.80
28548;DHT22;68292;49.600;8.746;2023-05-07T07:18:19;21.30;56.70
28548;DHT22;68292;49.600;8.746;2023-05-07T07:20:49;21.30;56.70
28548;DHT22;68292;49.600;8.746;2023-05-07T07:23:17;21.40;56.70
28548;DHT22;68292;49.600;8.746;2023-05-07T07:25:45;21.40;56.70
28548;DHT22;68292;49.600;8.746;2023-05-07T07:28:13;21.40;56.60
28548;DHT22;68292;49.600;8.746;2023-05-07T07:30:44;21.40;56.50
28548;DHT22;68292;49.600;8.746;2023-05-07T07:33:12;21.40;56.50
28548;DHT22;68292;49.600;8.746;2023-05-07T07:35:41;21.50;56.40
28548;DHT22;68292;49.600;8.746;2023-05-07T07:38:10;21.50;56.40
28548;DHT22;68292;49.600;8.746;2023-05-07T07:40:39;21.50;56.40
28548;DHT22;68292;49.600;8.746;2023-05-07T07:43:08;21.50;56.20
28548;DHT22;68292;49.600;8.746;2023-05-07T07:45:36;21.60;56.30
28548;DHT22;68292;49.600;8.746;2023-05-07T07:48:08;21.60;56.30
28548;DHT22;68292;49.600;8.746;2023-05-07T07:50:38;21.60;56.40
28548;DHT22;68292;49.600;8.746;2023-05-07T07:53:13;21.60;56.30
28548;DHT22;68292;49.600;8.746;2023-05-07T07:55:41;21.60;56.30
28548;DHT22;68292;49.600;8.746;2023-05-07T07:58:12;21.70;56.30
28548;DHT22;68292;49.600;8.746;2023-05-07T08:00:40;21.70;56.30
28548;DHT22;68292;49.600;8.746;2023-05-07T08:03:11;21.70;56.30
28548;DHT22;68292;49.600;8.746;2023-05-07T08:05:43;21.70;56.30
28548;DHT22;68292;49.600;8.746;2023-05-07T08:08:11;21.70;56.40
28548;DHT22;68292;49.600;8.746;2023-05-07T08:10:41;21.80;56.30
28548;DHT22;68292;49.600;8.746;2023-05-07T08:13:18;21.80;56.30
28548;DHT22;68292;49.600;8.746;2023-05-07T08:15:46;21.80;56.30
28548;DHT22;68292;49.600;8.746;2023-05-07T08:18:16;21.80;56.30
28548;DHT22;68292;49.600;8.746;2023-05-07T08:20:45;21.90;56.30
28548;DHT22;68292;49.600;8.746;2023-05-07T08:23:17;21.90;56.30
28548;DHT22;68292;49.600;8.746;2023-05-07T08:25:46;21.90;56.30
28548;DHT22;68292;49.600;8.746;2023-05-07T08:28:15;21.90;56.20
28548;DHT22;68292;49.600;8.746;2023-05-07T08:30:44;21.90;56.20
28548;DHT22;68292;49.600;8.746;2023-05-07T08:33:12;22.00;56.20
28548;DHT22;68292;49.600;8.746;2023-05-07T08:35:41;22.00;56.10
28548;DHT22;68292;49.600;8.746;2023-05-07T08:38:12;22.00;56.10
28548;DHT22;68292;49.600;8.746;2023-05-07T08:40:41;22.00;56.00
28548;DHT22;68292;49.600;8.746;2023-05-07T08:43:15;22.00;56.00
28548;DHT22;68292;49.600;8.746;2023-05-07T08:45:45;22.00;56.00
28548;DHT22;68292;49.600;8.746;2023-05-07T08:48:16;22.00;55.90
28548;DHT22;68292;49.600;8.746;2023-05-07T08:50:53;22.00;56.10
28548;DHT22;68292;49.600;8.746;2023-05-07T08:53:21;22.00;56.10
28548;DHT22;68292;49.600;8.746;2023-05-07T08:55:51;22.00;56.10
28548;DHT22;68292;49.600;8.746;2023-05-07T08:58:20;22.00;56.10
28548;DHT22;68292;49.600;8.746;2023-05-07T09:00:50;22.00;56.10
28548;DHT22;68292;49.600;8.746;2023-05-07T09:03:20;22.00;56.80
28548;DHT22;68292;49.600;8.746;2023-05-07T09:05:52;22.00;56.10
28548;DHT22;68292;49.600;8.746;2023-05-07T09:08:24;22.00;56.10
28548;DHT22;68292;49.600;8.746;2023-05-07T09:10:56;22.10;56.20
28548;DHT22;68292;49.600;8.746;2023-05-07T09:13:25;22.10;56.20
28548;DHT22;68292;49.600;8.746;2023-05-07T09:15:54;22.10;56.30
28548;DHT22;68292;49.600;8.746;2023-05-07T09:18:24;22.10;56.40
28548;DHT22;68292;49.600;8.746;2023-05-07T09:20:54;22.10;56.40
28548;DHT22;68292;49.600;8.746;2023-05-07T09:23:23;22.10;57.20
28548;DHT22;68292;49.600;8.746;2023-05-07T09:26:00;22.10;56.70
28548;DHT22;68292;49.600;8.746;2023-05-07T09:28:31;22.20;56.90
28548;DHT22;68292;49.600;8.746;2023-05-07T09:31:00;22.20;57.10
28548;DHT22;68292;49.600;8.746;2023-05-07T09:33:28;22.30;57.40
28548;DHT22;68292;49.600;8.746;2023-05-07T09:36:02;22.30;58.20
28548;DHT22;68292;49.600;8.746;2023-05-07T09:38:32;22.40;57.70
28548;DHT22;68292;49.600;8.746;2023-05-07T09:41:04;22.50;57.80
28548;DHT22;68292;49.600;8.746;2023-05-07T09:43:40;22.60;57.80
28548;DHT22;68292;49.600;8.746;2023-05-07T09:46:13;22.60;57.50
28548;DHT22;68292;49.600;8.746;2023-05-07T09:48:48;22.70;57.30
28548;DHT22;68292;49.600;8.746;2023-05-07T09:51:24;22.80;57.30
28548;DHT22;68292;49.600;8.746;2023-05-07T09:53:58;22.90;57.50
28548;DHT22;68292;49.600;8.746;2023-05-07T09:56:29;23.00;57.30
28548;DHT22;68292;49.600;8.746;2023-05-07T09:59:00;23.00;57.00
28548;DHT22;68292;49.600;8.746;2023-05-07T10:01:31;23.00;56.80
28548;DHT22;68292;49.600;8.746;2023-05-07T10:04:02;23.10;56.70
28548;DHT22;68292;49.600;8.746;2023-05-07T10:06:34;23.10;56.60
28548;DHT22;68292;49.600;8.746;2023-05-07T10:09:03;23.10;56.40
28548;DHT22;68292;49.600;8.746;2023-05-07T10:11:33;23.10;56.40
28548;DHT22;68292;49.600;8.746;2023-05-07T10:14:03;23.10;56.40
28548;DHT22;68292;49.600;8.746;2023-05-07T10:16:36;23.10;56.50
28548;DHT22;68292;49.600;8.746;2023-05-07T10:19:10;23.10;56.50
28548;DHT22;68292;49.600;8.746;2023-05-07T10:21:50;23.10;56.60
28548;DHT22;68292;49.600;8.746;2023-05-07T10:24:22;23.10;57.40
28548;DHT22;68292;49.600;8.746;2023-05-07T10:26:53;23.20;57.90
28548;DHT22;68292;49.600;8.746;2023-05-07T10:29:33;23.30;58.00
28548;DHT22;68292;49.600;8.746;2023-05-07T10:32:16;23.50;57.90
28548;DHT22;68292;49.600;8.746;2023-05-07T10:34:54;23.60;57.50
28548;DHT22;68292;49.600;8.746;2023-05-07T10:37:25;23.70;57.30
28548;DHT22;68292;49.600;8.746;2023-05-07T10:39:55;23.80;57.10
28548;DHT22;68292;49.600;8.746;2023-05-07T10:42:26;24.00;56.90
28548;DHT22;68292;49.600;8.746;2023-05-07T10:44:55;24.10;56.70
28548;DHT22;68292;49.600;8.746;2023-05-07T10:47:28;24.10;55.80
28548;DHT22;68292;49.600;8.746;2023-05-07T10:50:22;24.20;55.90
28548;DHT22;68292;49.600;8.746;2023-05-07T10:53:22;24.20;55.50
28548;DHT22;68292;49.600;8.746;2023-05-07T10:56:24;24.20;55.40
28548;DHT22;68292;49.600;8.746;2023-05-07T10:59:33;24.30;55.20
28548;DHT22;68292;49.600;8.746;2023-05-07T11:02:16;24.20;54.90
28548;DHT22;68292;49.600;8.746;2023-05-07T11:05:19;24.20;55.00
28548;DHT22;68292;49.600;8.746;2023-05-07T11:07:57;24.20;55.40
28548;DHT22;68292;49.600;8.746;2023-05-07T11:10:49;24.20;55.10
28548;DHT22;68292;49.600;8.746;2023-05-07T11:13:43;24.10;54.90
28548;DHT22;68292;49.600;8.746;2023-05-07T11:16:24;24.10;54.70
28548;DHT22;68292;49.600;8.746;2023-05-07T11:19:02;24.10;54.80
28548;DHT22;68292;49.600;8.746;2023-05-07T11:21:38;24.10;54.60
28548;DHT22;68292;49.600;8.746;2023-05-07T11:24:25;24.00;54.30
28548;DHT22;68292;49.600;8.746;2023-05-07T11:27:01;24.00;54.40
28548;DHT22;68292;49.600;8.746;2023-05-07T11:29:30;24.00;54.40
28548;DHT22;68292;49.600;8.746;2023-05-07T11:32:05;24.00;54.70
28548;DHT22;68292;49.600;8.746;2023-05-07T11:34:40;24.00;54.90
28548;DHT22;68292;49.600;8.746;2023-05-07T11:37:09;23.90;54.90
28548;DHT22;68292;49.600;8.746;2023-05-07T11:39:49;23.90;54.80
28548;DHT22;68292;49.600;8.746;2023-05-07T11:42:30;23.90;54.70
28548;DHT22;68292;49.600;8.746;2023-05-07T11:44:59;23.90;54.70
28548;DHT22;68292;49.600;8.746;2023-05-07T11:47:30;23.80;54.30
28548;DHT22;68292;49.600;8.746;2023-05-07T11:50:03;23.80;54.10
28548;DHT22;68292;49.600;8.746;2023-05-07T11:52:32;23.80;53.80
28548;DHT22;68292;49.600;8.746;2023-05-07T11:55:01;23.80;54.00
28548;DHT22;68292;49.600;8.746;2023-05-07T11:57:33;23.70;53.90
28548;DHT22;68292;49.600;8.746;2023-05-07T12:00:01;23.70;53.70
28548;DHT22;68292;49.600;8.746;2023-05-07T12:02:38;23.70;53.90
28548;DHT22;68292;49.600;8.746;2023-05-07T12:05:06;23.70;54.00
28548;DHT22;68292;49.600;8.746;2023-05-07T12:07:35;23.70;53.80
28548;DHT22;68292;49.600;8.746;2023-05-07T12:10:07;23.70;53.80
28548;DHT22;68292;49.600;8.746;2023-05-07T12:12:40;23.70;53.70
28548;DHT22;68292;49.600;8.746;2023-05-07T12:15:09;23.70;53.80
28548;DHT22;68292;49.600;8.746;2023-05-07T12:17:38;23.70;53.90
28548;DHT22;68292;49.600;8.746;2023-05-07T12:20:08;23.70;54.10
28548;DHT22;68292;49.600;8.746;2023-05-07T12:22:36;23.70;53.80
28548;DHT22;68292;49.600;8.746;2023-05-07T12:25:05;23.70;54.30
28548;DHT22;68292;49.600;8.746;2023-05-07T12:27:37;23.70;53.90
28548;DHT22;68292;49.600;8.746;2023-05-07T12:30:10;23.80;53.80
28548;DHT22;68292;49.600;8.746;2023-05-07T12:32:40;23.70;53.80
28548;DHT22;68292;49.600;8.746;2023-05-07T12:35:08;23.80;53.60
28548;DHT22;68292;49.600;8.746;2023-05-07T12:37:36;23.80;53.70
28548;DHT22;68292;49.600;8.746;2023-05-07T12:40:05;23.80;53.70
28548;DHT22;68292;49.600;8.746;2023-05-07T12:42:36;23.80;53.60
28548;DHT22;68292;49.600;8.746;2023-05-07T12:45:10;23.80;53.50
28548;DHT22;68292;49.600;8.746;2023-05-07T12:47:39;23.80;53.20
28548;DHT22;68292;49.600;8.746;2023-05-07T12:50:11;23.80;53.30
28548;DHT22;68292;49.600;8.746;2023-05-07T12:52:40;23.80;53.30
28548;DHT22;68292;49.600;8.746;2023-05-07T12:55:11;23.80;52.90
28548;DHT22;68292;49.600;8.746;2023-05-07T12:57:41;23.80;53.10
28548;DHT22;68292;49.600;8.746;2023-05-07T13:00:12;23.80;52.80
28548;DHT22;68292;49.600;8.746;2023-05-07T13:02:43;23.80;52.90
28548;DHT22;68292;49.600;8.746;2023-05-07T13:05:12;23.80;52.90
28548;DHT22;68292;49.600;8.746;2023-05-07T13:07:40;23.80;52.80
28548;DHT22;68292;49.600;8.746;2023-05-07T13:10:21;23.80;52.80
28548;DHT22;68292;49.600;8.746;2023-05-07T13:12:49;23.80;52.80
28548;DHT22;68292;49.600;8.746;2023-05-07T13:15:19;23.90;53.10
28548;DHT22;68292;49.600;8.746;2023-05-07T13:17:48;23.90;52.90
28548;DHT22;68292;49.600;8.746;2023-05-07T13:20:16;23.90;52.80
28548;DHT22;68292;49.600;8.746;2023-05-07T13:22:45;24.00;52.90
28548;DHT22;68292;49.600;8.746;2023-05-07T13:25:13;24.00;53.00
28548;DHT22;68292;49.600;8.746;2023-05-07T13:27:41;24.00;53.20
28548;DHT22;68292;49.600;8.746;2023-05-07T13:30:09;24.00;53.10
28548;DHT22;68292;49.600;8.746;2023-05-07T13:32:39;24.00;52.90
28548;DHT22;68292;49.600;8.746;2023-05-07T13:35:07;24.00;52.90
28548;DHT22;68292;49.600;8.746;2023-05-07T13:37:36;24.00;52.90
28548;DHT22;68292;49.600;8.746;2023-05-07T13:40:05;24.10;52.60
28548;DHT22;68292;49.600;8.746;2023-05-07T13:42:34;24.10;52.70
28548;DHT22;68292;49.600;8.746;2023-05-07T13:45:02;24.10;52.80
28548;DHT22;68292;49.600;8.746;2023-05-07T13:47:31;24.10;52.50
28548;DHT22;68292;49.600;8.746;2023-05-07T13:50:01;24.10;52.30
28548;DHT22;68292;49.600;8.746;2023-05-07T13:52:29;24.10;52.20
28548;DHT22;68292;49.600;8.746;2023-05-07T13:54:57;24.10;52.20
28548;DHT22;68292;49.600;8.746;2023-05-07T13:57:25;24.10;52.10
28548;DHT22;68292;49.600;8.746;2023-05-07T13:59:53;24.10;52.10
28548;DHT22;68292;49.600;8.746;2023-05-07T14:02:22;24.10;52.30
28548;DHT22;68292;49.600;8.746;2023-05-07T14:04:50;24.10;52.30
28548;DHT22;68292;49.600;8.746;2023-05-07T14:07:20;24.10;52.40
28548;DHT22;68292;49.600;8.746;2023-05-07T14:09:48;24.00;52.20
28548;DHT22;68292;49.600;8.746;2023-05-07T14:12:16;24.10;52.30
28548;DHT22;68292;49.600;8.746;2023-05-07T14:14:44;24.10;52.20
28548;DHT22;68292;49.600;8.746;2023-05-07T14:17:13;24.00;52.10
28548;DHT22;68292;49.600;8.746;2023-05-07T14:20:00;24.00;52.20
28548;DHT22;68292;49.600;8.746;2023-05-07T14:22:48;24.00;52.20
28548;DHT22;68292;49.600;8.746;2023-05-07T14:25:34;24.00;52.30
28548;DHT22;68292;49.600;8.746;2023-05-07T14:28:21;23.90;52.90
28548;DHT22;68292;49.600;8.746;2023-05-07T14:31:07;24.00;52.30
28548;DHT22;68292;49.600;8.746;2023-05-07T14:33:55;23.90;52.20
28548;DHT22;68292;49.600;8.746;2023-05-07T14:36:43;23.90;52.30
28548;DHT22;68292;49.600;8.746;2023-05-07T14:39:31;23.80;52.30
28548;DHT22;68292;49.600;8.746;2023-05-07T14:42:17;23.80;52.20
28548;DHT22;68292;49.600;8.746;2023-05-07T14:45:05;23.80;52.30
28548;DHT22;68292;49.600;8.746;2023-05-07T14:47:53;23.80;52.40
28548;DHT22;68292;49.600;8.746;2023-05-07T14:50:40;23.70;52.40
28548;DHT22;68292;49.600;8.746;2023-05-07T14:53:27;23.70;52.40
28548;DHT22;68292;49.600;8.746;2023-05-07T14:56:15;23.70;52.70
28548;DHT22;68292;49.600;8.746;2023-05-07T14:59:02;23.70;52.80
28548;DHT22;68292;49.600;8.746;2023-05-07T15:01:49;23.60;53.60
28548;DHT22;68292;49.600;8.746;2023-05-07T15:04:35;23.60;53.10
28548;DHT22;68292;49.600;8.746;2023-05-07T15:07:23;23.60;53.40
28548;DHT22;68292;49.600;8.746;2023-05-07T15:10:10;23.60;54.30
28548;DHT22;68292;49.600;8.746;2023-05-07T15:12:58;23.50;54.60
28548;DHT22;68292;49.600;8.746;2023-05-07T15:15:45;23.50;54.90
28548;DHT22;68292;49.600;8.746;2023-05-07T15:18:31;23.50;54.70
28548;DHT22;68292;49.600;8.746;2023-05-07T15:21:18;23.50;54.80
28548;DHT22;68292;49.600;8.746;2023-05-07T15:24:06;23.40;54.90
28548;DHT22;68292;49.600;8.746;2023-05-07T15:26:54;23.40;55.00
28548;DHT22;68292;49.600;8.746;2023-05-07T15:29:43;23.30;55.10
28548;DHT22;68292;49.600;8.746;2023-05-07T15:32:29;23.30;55.40
28548;DHT22;68292;49.600;8.746;2023-05-07T15:35:16;23.20;55.40
28548;DHT22;68292;49.600;8.746;2023-05-07T15:38:06;23.10;55.40
28548;DHT22;68292;49.600;8.746;2023-05-07T15:40:53;23.10;55.40
28548;DHT22;68292;49.600;8.746;2023-05-07T15:43:44;23.00;55.50
28548;DHT22;68292;49.600;8.746;2023-05-07T15:46:34;23.00;56.10
28548;DHT22;68292;49.600;8.746;2023-05-07T15:49:20;22.90;56.00
28548;DHT22;68292;49.600;8.746;2023-05-07T15:52:07;22.90;55.90
28548;DHT22;68292;49.600;8.746;2023-05-07T15:54:56;22.80;56.10
28548;DHT22;68292;49.600;8.746;2023-05-07T15:57:42;22.80;56.30
28548;DHT22;68292;49.600;8.746;2023-05-07T16:00:29;22.70;56.30
28548;DHT22;68292;49.600;8.746;2023-05-07T16:03:17;22.70;56.50